sensor_id;sensor_type;location;lat;lon;timestamp;pressure;altitude;pressure_sealevel;temperature;humidity
41862;BME280;27537;57.134;-2.136;2024-02-26T00:02:07;100278.28;;;4.30;100.00
41862;BME280;27537;57.134;-2.136;2024-02-26T00:04:34;100274.78;;;4.31;100.00
41862;BME280;27537;57.134;-2.136;2024-02-26T00:07:00;100275.78;;;4.26;100.00
41862;BME280;27537;57.134;-2.136;2024-02-26T00:09:27;100280.03;;;4.28;100.00
41862;BME280;27537;57.134;-2.136;2024-02-26T00:11:54;100285.13;;;4.33;100.00
41862;BME280;27537;57.134;-2.136;2024-02-26T00:14:22;100283.53;;;4.26;100.00
41862;BME280;27537;57.134;-2.136;2024-02-26T00:16:48;100284.19;;;4.37;100.00
41862;BME280;27537;57.134;-2.136;2024-02-26T00:19:15;100292.91;;;4.33;100.00
41862;BME280;27537;57.134;-2.136;2024-02-26T00:21:42;100297.22;;;4.34;100.00
41862;BME280;27537;57.134;-2.136;2024-02-26T00:24:09;100302.41;;;4.34;100.00
41862;BME280;27537;57.134;-2.136;2024-02-26T00:26:35;100299.13;;;4.24;100.00
41862;BME280;27537;57.134;-2.136;2024-02-26T00:29:02;100299.94;;;4.26;100.00
41862;BME280;27537;57.134;-2.136;2024-02-26T00:31:29;100299.72;;;4.38;100.00
41862;BME280;27537;57.134;-2.136;2024-02-26T00:33:56;100304.78;;;4.46;100.00
41862;BME280;27537;57.134;-2.136;2024-02-26T00:36:23;100310.78;;;4.48;100.00
41862;BME280;27537;57.134;-2.136;2024-02-26T00:38:50;100313.47;;;4.42;100.00
41862;BME280;27537;57.134;-2.136;2024-02-26T00:41:20;100314.59;;;4.29;100.00
41862;BME280;27537;57.134;-2.136;2024-02-26T00:43:47;100312.66;;;4.38;100.00
41862;BME280;27537;57.134;-2.136;2024-02-26T00:46:14;100313.50;;;4.41;100.00
41862;BME280;27537;57.134;-2.136;2024-02-26T00:48:41;100320.97;;;4.56;100.00
41862;BME280;27537;57.134;-2.136;2024-02-26T00:51:07;100324.00;;;4.34;100.00
41862;BME280;27537;57.134;-2.136;2024-02-26T00:53:35;100324.56;;;4.49;100.00
41862;BME280;27537;57.134;-2.136;2024-02-26T00:56:01;100337.56;;;4.47;100.00
41862;BME280;27537;57.134;-2.136;2024-02-26T00:58:28;100342.69;;;4.52;100.00
41862;BME280;27537;57.134;-2.136;2024-02-26T01:00:55;100345.94;;;4.62;100.00
41862;BME280;27537;57.134;-2.136;2024-02-26T01:03:22;100358.28;;;4.49;100.00
41862;BME280;27537;57.134;-2.136;2024-02-26T01:05:48;100361.16;;;4.32;100.00
41862;BME280;27537;57.134;-2.136;2024-02-26T01:08:15;100356.75;;;4.37;100.00
41862;BME280;27537;57.134;-2.136;2024-02-26T01:10:42;100367.06;;;4.42;100.00
41862;BME280;27537;57.134;-2.136;2024-02-26T01:13:09;100364.41;;;4.46;100.00
41862;BME280;27537;57.134;-2.136;2024-02-26T01:15:36;100380.03;;;4.42;100.00
41862;BME280;27537;57.134;-2.136;2024-02-26T01:18:02;100368.94;;;4.32;100.00
41862;BME280;27537;57.134;-2.136;2024-02-26T01:20:29;100374.09;;;4.35;100.00
41862;BME280;27537;57.134;-2.136;2024-02-26T01:22:56;100382.81;;;4.29;100.00
41862;BME280;27537;57.134;-2.136;2024-02-26T01:25:23;100387.19;;;4.27;100.00
41862;BME280;27537;57.134;-2.136;2024-02-26T01:27:49;100383.19;;;4.08;100.00
41862;BME280;27537;57.134;-2.136;2024-02-26T01:30:18;100386.44;;;4.19;100.00
41862;BME280;27537;57.134;-2.136;2024-02-26T01:32:45;100403.59;;;4.28;100.00
41862;BME280;27537;57.134;-2.136;2024-02-26T01:35:12;100396.94;;;4.13;100.00
41862;BME280;27537;57.134;-2.136;2024-02-26T01:37:39;100408.75;;;4.29;100.00
41862;BME280;27537;57.134;-2.136;2024-02-26T01:40:06;100411.28;;;4.34;100.00
41862;BME280;27537;57.134;-2.136;2024-02-26T01:42:33;100412.28;;;4.25;100.00
41862;BME280;27537;57.134;-2.136;2024-02-26T01:45:00;100415.97;;;4.10;100.00
41862;BME280;27537;57.134;-2.136;2024-02-26T01:47:27;100411.41;;;4.25;100.00
41862;BME280;27537;57.134;-2.136;2024-02-26T01:49:55;100403.91;;;4.09;100.00
41862;BME280;27537;57.134;-2.136;2024-02-26T01:52:22;100410.72;;;4.13;100.00
41862;BME280;27537;57.134;-2.136;2024-02-26T01:54:50;100411.50;;;4.20;100.00
41862;BME280;27537;57.134;-2.136;2024-02-26T01:57:16;100414.91;;;4.24;100.00
41862;BME280;27537;57.134;-2.136;2024-02-26T01:59:43;100418.28;;;4.27;100.00
41862;BME280;27537;57.134;-2.136;2024-02-26T02:02:11;100425.81;;;4.43;100.00
41862;BME280;27537;57.134;-2.136;2024-02-26T02:04:39;100422.44;;;4.37;100.00
41862;BME280;27537;57.134;-2.136;2024-02-26T02:07:06;100434.41;;;4.45;100.00
41862;BME280;27537;57.134;-2.136;2024-02-26T02:09:33;100419.53;;;4.54;100.00
41862;BME280;27537;57.134;-2.136;2024-02-26T02:12:00;100426.47;;;4.54;100.00
41862;BME280;27537;57.134;-2.136;2024-02-26T02:14:27;100419.56;;;4.53;100.00
41862;BME280;27537;57.134;-2.136;2024-02-26T02:16:54;100430.91;;;4.46;100.00
41862;BME280;27537;57.134;-2.136;2024-02-26T02:19:21;100432.72;;;4.41;100.00
41862;BME280;27537;57.134;-2.136;2024-02-26T02:21:47;100436.81;;;4.55;100.00
41862;BME280;27537;57.134;-2.136;2024-02-26T02:24:14;100447.22;;;4.54;100.00
41862;BME280;27537;57.134;-2.136;2024-02-26T02:26:41;100448.19;;;4.47;100.00
41862;BME280;27537;57.134;-2.136;2024-02-26T02:29:08;100462.47;;;4.71;100.00
41862;BME280;27537;57.134;-2.136;2024-02-26T02:31:36;100448.75;;;4.64;100.00
41862;BME280;27537;57.134;-2.136;2024-02-26T02:34:03;100459.31;;;4.53;100.00
41862;BME280;27537;57.134;-2.136;2024-02-26T02:36:30;100460.13;;;4.57;100.00
41862;BME280;27537;57.134;-2.136;2024-02-26T02:38:57;100464.31;;;4.66;100.00
41862;BME280;27537;57.134;-2.136;2024-02-26T02:41:23;100467.09;;;4.53;100.00
41862;BME280;27537;57.134;-2.136;2024-02-26T02:43:50;100466.59;;;4.31;100.00
41862;BME280;27537;57.134;-2.136;2024-02-26T02:46:17;100463.59;;;4.56;100.00
41862;BME280;27537;57.134;-2.136;2024-02-26T02:48:43;100475.63;;;4.60;100.00
41862;BME280;27537;57.134;-2.136;2024-02-26T02:51:11;100479.41;;;4.39;100.00
41862;BME280;27537;57.134;-2.136;2024-02-26T02:53:37;100480.66;;;4.69;100.00
41862;BME280;27537;57.134;-2.136;2024-02-26T02:56:05;100480.09;;;4.52;100.00
41862;BME280;27537;57.134;-2.136;2024-02-26T02:58:31;100493.63;;;4.69;100.00
41862;BME280;27537;57.134;-2.136;2024-02-26T03:00:58;100487.66;;;4.66;100.00
41862;BME280;27537;57.134;-2.136;2024-02-26T03:03:26;100494.66;;;4.61;100.00
41862;BME280;27537;57.134;-2.136;2024-02-26T03:05:55;100486.28;;;4.43;100.00
41862;BME280;27537;57.134;-2.136;2024-02-26T03:08:22;100489.84;;;4.36;100.00
41862;BME280;27537;57.134;-2.136;2024-02-26T03:10:50;100488.75;;;4.49;100.00
41862;BME280;27537;57.134;-2.136;2024-02-26T03:13:17;100490.84;;;4.29;100.00
41862;BME280;27537;57.134;-2.136;2024-02-26T03:15:43;100489.94;;;4.30;100.00
41862;BME280;27537;57.134;-2.136;2024-02-26T03:18:10;100497.84;;;4.22;100.00
41862;BME280;27537;57.134;-2.136;2024-02-26T03:20:37;100491.56;;;4.37;100.00
41862;BME280;27537;57.134;-2.136;2024-02-26T03:23:04;100492.66;;;4.22;100.00
41862;BME280;27537;57.134;-2.136;2024-02-26T03:25:30;100502.06;;;4.28;100.00
41862;BME280;27537;57.134;-2.136;2024-02-26T03:27:57;100504.31;;;4.49;100.00
41862;BME280;27537;57.134;-2.136;2024-02-26T03:30:24;100512.28;;;4.37;100.00
41862;BME280;27537;57.134;-2.136;2024-02-26T03:32:50;100515.00;;;4.31;100.00
41862;BME280;27537;57.134;-2.136;2024-02-26T03:35:17;100520.13;;;4.34;100.00
41862;BME280;27537;57.134;-2.136;2024-02-26T03:37:46;100531.94;;;4.53;100.00
41862;BME280;27537;57.134;-2.136;2024-02-26T03:40:13;100536.25;;;4.51;100.00
41862;BME280;27537;57.134;-2.136;2024-02-26T03:42:41;100535.38;;;4.54;100.00
41862;BME280;27537;57.134;-2.136;2024-02-26T03:45:08;100521.94;;;4.29;100.00
41862;BME280;27537;57.134;-2.136;2024-02-26T03:47:37;100538.22;;;4.37;100.00
41862;BME280;27537;57.134;-2.136;2024-02-26T03:50:05;100538.38;;;4.26;100.00
41862;BME280;27537;57.134;-2.136;2024-02-26T03:52:33;100547.72;;;4.38;100.00
41862;BME280;27537;57.134;-2.136;2024-02-26T03:55:00;100551.97;;;4.41;100.00
41862;BME280;27537;57.134;-2.136;2024-02-26T03:57:27;100540.78;;;4.38;100.00
41862;BME280;27537;57.134;-2.136;2024-02-26T03:59:53;100551.75;;;4.57;100.00
41862;BME280;27537;57.134;-2.136;2024-02-26T04:02:20;100559.13;;;4.25;100.00
41862;BME280;27537;57.134;-2.136;2024-02-26T04:04:47;100552.91;;;4.36;100.00
41862;BME280;27537;57.134;-2.136;2024-02-26T04:07:14;100558.25;;;4.27;100.00
41862;BME280;27537;57.134;-2.136;2024-02-26T04:09:41;100569.63;;;4.17;100.00
41862;BME280;27537;57.134;-2.136;2024-02-26T04:12:08;100579.84;;;4.26;100.00
41862;BME280;27537;57.134;-2.136;2024-02-26T04:14:35;100577.09;;;4.37;100.00
41862;BME280;27537;57.134;-2.136;2024-02-26T04:17:02;100581.59;;;4.24;100.00
41862;BME280;27537;57.134;-2.136;2024-02-26T04:19:29;100591.75;;;4.40;100.00
41862;BME280;27537;57.134;-2.136;2024-02-26T04:21:56;100590.81;;;4.45;100.00
41862;BME280;27537;57.134;-2.136;2024-02-26T04:24:23;100600.28;;;4.48;100.00
41862;BME280;27537;57.134;-2.136;2024-02-26T04:26:50;100605.59;;;4.38;100.00
41862;BME280;27537;57.134;-2.136;2024-02-26T04:29:16;100610.59;;;4.52;100.00
41862;BME280;27537;57.134;-2.136;2024-02-26T04:31:44;100613.06;;;4.60;100.00
41862;BME280;27537;57.134;-2.136;2024-02-26T04:34:12;100616.28;;;4.74;100.00
41862;BME280;27537;57.134;-2.136;2024-02-26T04:36:40;100621.75;;;4.57;100.00
41862;BME280;27537;57.134;-2.136;2024-02-26T04:39:07;100624.34;;;4.57;100.00
41862;BME280;27537;57.134;-2.136;2024-02-26T04:41:34;100621.78;;;4.54;100.00
41862;BME280;27537;57.134;-2.136;2024-02-26T04:44:01;100632.78;;;4.70;100.00
41862;BME280;27537;57.134;-2.136;2024-02-26T04:46:28;100640.53;;;4.73;100.00
41862;BME280;27537;57.134;-2.136;2024-02-26T04:48:54;100637.75;;;4.86;100.00
41862;BME280;27537;57.134;-2.136;2024-02-26T04:51:23;100644.00;;;4.72;100.00
41862;BME280;27537;57.134;-2.136;2024-02-26T04:53:50;100664.88;;;4.63;100.00
41862;BME280;27537;57.134;-2.136;2024-02-26T04:56:21;100660.50;;;4.68;100.00
41862;BME280;27537;57.134;-2.136;2024-02-26T04:58:48;100661.91;;;4.91;100.00
41862;BME280;27537;57.134;-2.136;2024-02-26T05:01:15;100667.44;;;4.66;100.00
41862;BME280;27537;57.134;-2.136;2024-02-26T05:03:43;100671.38;;;4.92;100.00
41862;BME280;27537;57.134;-2.136;2024-02-26T05:06:10;100672.75;;;4.59;100.00
41862;BME280;27537;57.134;-2.136;2024-02-26T05:08:37;100674.28;;;4.72;100.00
41862;BME280;27537;57.134;-2.136;2024-02-26T05:11:05;100667.28;;;4.77;100.00
41862;BME280;27537;57.134;-2.136;2024-02-26T05:13:32;100692.88;;;5.02;100.00
41862;BME280;27537;57.134;-2.136;2024-02-26T05:15:59;100689.66;;;4.84;100.00
41862;BME280;27537;57.134;-2.136;2024-02-26T05:18:27;100703.22;;;5.05;100.00
41862;BME280;27537;57.134;-2.136;2024-02-26T05:20:54;100694.53;;;5.04;100.00
41862;BME280;27537;57.134;-2.136;2024-02-26T05:23:21;100697.06;;;5.09;100.00
41862;BME280;27537;57.134;-2.136;2024-02-26T05:25:49;100703.28;;;4.99;100.00
41862;BME280;27537;57.134;-2.136;2024-02-26T05:28:16;100700.66;;;5.02;100.00
41862;BME280;27537;57.134;-2.136;2024-02-26T05:30:42;100712.22;;;4.78;100.00
41862;BME280;27537;57.134;-2.136;2024-02-26T05:33:09;100713.97;;;4.79;100.00
41862;BME280;27537;57.134;-2.136;2024-02-26T05:35:38;100723.41;;;4.83;100.00
41862;BME280;27537;57.134;-2.136;2024-02-26T05:38:04;100725.03;;;4.88;100.00
41862;BME280;27537;57.134;-2.136;2024-02-26T05:40:31;100724.38;;;4.75;100.00
41862;BME280;27537;57.134;-2.136;2024-02-26T05:42:58;100735.38;;;4.93;100.00
41862;BME280;27537;57.134;-2.136;2024-02-26T05:45:24;100737.44;;;4.69;100.00
41862;BME280;27537;57.134;-2.136;2024-02-26T05:47:51;100736.38;;;4.83;100.00
41862;BME280;27537;57.134;-2.136;2024-02-26T05:50:18;100747.91;;;4.60;100.00
41862;BME280;27537;57.134;-2.136;2024-02-26T05:52:45;100756.56;;;4.61;100.00
41862;BME280;27537;57.134;-2.136;2024-02-26T05:55:11;100766.13;;;4.55;100.00
41862;BME280;27537;57.134;-2.136;2024-02-26T05:57:39;100762.50;;;4.69;100.00
41862;BME280;27537;57.134;-2.136;2024-02-26T06:00:06;100760.69;;;4.74;100.00
41862;BME280;27537;57.134;-2.136;2024-02-26T06:02:34;100758.06;;;4.79;100.00
41862;BME280;27537;57.134;-2.136;2024-02-26T06:05:01;100763.44;;;4.63;100.00
41862;BME280;27537;57.134;-2.136;2024-02-26T06:07:27;100771.03;;;4.79;100.00
41862;BME280;27537;57.134;-2.136;2024-02-26T06:09:54;100768.72;;;4.57;100.00
41862;BME280;27537;57.134;-2.136;2024-02-26T06:12:21;100786.66;;;4.72;100.00
41862;BME280;27537;57.134;-2.136;2024-02-26T06:14:48;100782.28;;;4.76;100.00
41862;BME280;27537;57.134;-2.136;2024-02-26T06:17:15;100790.88;;;4.80;100.00
41862;BME280;27537;57.134;-2.136;2024-02-26T06:19:42;100790.88;;;4.80;100.00
41862;BME280;27537;57.134;-2.136;2024-02-26T06:22:09;100782.25;;;4.78;100.00
41862;BME280;27537;57.134;-2.136;2024-02-26T06:24:36;100790.28;;;4.61;100.00
41862;BME280;27537;57.134;-2.136;2024-02-26T06:27:03;100791.13;;;4.60;100.00
41862;BME280;27537;57.134;-2.136;2024-02-26T06:29:30;100795.59;;;4.48;100.00
41862;BME280;27537;57.134;-2.136;2024-02-26T06:31:56;100805.03;;;4.55;100.00
41862;BME280;27537;57.134;-2.136;2024-02-26T06:34:23;100807.53;;;4.63;100.00
41862;BME280;27537;57.134;-2.136;2024-02-26T06:36:50;100817.88;;;4.65;100.00
41862;BME280;27537;57.134;-2.136;2024-02-26T06:39:16;100817.06;;;4.61;100.00
41862;BME280;27537;57.134;-2.136;2024-02-26T06:41:44;100820.56;;;4.59;100.00
41862;BME280;27537;57.134;-2.136;2024-02-26T06:44:13;100834.56;;;4.39;100.00
41862;BME280;27537;57.134;-2.136;2024-02-26T06:46:40;100831.22;;;4.32;100.00
41862;BME280;27537;57.134;-2.136;2024-02-26T06:49:07;100825.09;;;4.40;100.00
41862;BME280;27537;57.134;-2.136;2024-02-26T06:51:34;100827.56;;;4.49;100.00
41862;BME280;27537;57.134;-2.136;2024-02-26T06:54:01;100847.47;;;4.47;100.00
41862;BME280;27537;57.134;-2.136;2024-02-26T06:56:28;100848.44;;;4.38;100.00
41862;BME280;27537;57.134;-2.136;2024-02-26T06:58:54;100845.09;;;4.25;100.00
41862;BME280;27537;57.134;-2.136;2024-02-26T07:01:21;100852.81;;;4.33;100.00
41862;BME280;27537;57.134;-2.136;2024-02-26T07:03:48;100851.00;;;4.43;100.00
41862;BME280;27537;57.134;-2.136;2024-02-26T07:06:14;100858.91;;;4.27;100.00
41862;BME280;27537;57.134;-2.136;2024-02-26T07:08:41;100851.97;;;4.31;100.00
41862;BME280;27537;57.134;-2.136;2024-02-26T07:11:08;100857.25;;;4.20;100.00
41862;BME280;27537;57.134;-2.136;2024-02-26T07:13:36;100859.75;;;4.29;100.00
41862;BME280;27537;57.134;-2.136;2024-02-26T07:16:03;100865.03;;;4.17;100.00
41862;BME280;27537;57.134;-2.136;2024-02-26T07:18:30;100868.47;;;4.19;100.00
41862;BME280;27537;57.134;-2.136;2024-02-26T07:20:57;100869.47;;;4.07;100.00
41862;BME280;27537;57.134;-2.136;2024-02-26T07:23:24;100876.25;;;4.19;100.00
41862;BME280;27537;57.134;-2.136;2024-02-26T07:25:50;100865.13;;;4.08;100.00
41862;BME280;27537;57.134;-2.136;2024-02-26T07:28:19;100881.47;;;4.16;100.00
41862;BME280;27537;57.134;-2.136;2024-02-26T07:30:46;100880.59;;;4.17;100.00
41862;BME280;27537;57.134;-2.136;2024-02-26T07:33:13;100887.41;;;4.27;100.00
41862;BME280;27537;57.134;-2.136;2024-02-26T07:35:40;100896.03;;;4.31;100.00
41862;BME280;27537;57.134;-2.136;2024-02-26T07:38:06;100895.94;;;4.42;100.00
41862;BME280;27537;57.134;-2.136;2024-02-26T07:40:44;100900.09;;;4.55;100.00
41862;BME280;27537;57.134;-2.136;2024-02-26T07:43:24;100904.44;;;4.54;100.00
41862;BME280;27537;57.134;-2.136;2024-02-26T07:45:51;100904.44;;;4.51;100.00
41862;BME280;27537;57.134;-2.136;2024-02-26T07:48:18;100913.84;;;4.65;100.00
41862;BME280;27537;57.134;-2.136;2024-02-26T07:50:45;100916.47;;;4.62;100.00
41862;BME280;27537;57.134;-2.136;2024-02-26T07:53:11;100915.69;;;4.53;100.00
41862;BME280;27537;57.134;-2.136;2024-02-26T07:55:38;100924.44;;;4.42;100.00
41862;BME280;27537;57.134;-2.136;2024-02-26T07:58:05;100927.59;;;4.73;100.00
41862;BME280;27537;57.134;-2.136;2024-02-26T08:00:35;100940.22;;;5.07;100.00
41862;BME280;27537;57.134;-2.136;2024-02-26T08:03:02;100937.16;;;5.45;100.00
41862;BME280;27537;57.134;-2.136;2024-02-26T08:05:29;100941.16;;;5.66;100.00
41862;BME280;27537;57.134;-2.136;2024-02-26T08:07:55;100946.75;;;5.37;100.00
41862;BME280;27537;57.134;-2.136;2024-02-26T08:10:24;100946.22;;;5.77;100.00
41862;BME280;27537;57.134;-2.136;2024-02-26T08:12:51;100946.91;;;5.88;100.00
41862;BME280;27537;57.134;-2.136;2024-02-26T08:15:17;100954.78;;;5.84;100.00
41862;BME280;27537;57.134;-2.136;2024-02-26T08:17:45;100950.84;;;6.16;100.00
41862;BME280;27537;57.134;-2.136;2024-02-26T08:20:14;100967.84;;;6.37;100.00
41862;BME280;27537;57.134;-2.136;2024-02-26T08:22:41;100979.72;;;6.00;100.00
41862;BME280;27537;57.134;-2.136;2024-02-26T08:25:08;100974.84;;;6.33;100.00
41862;BME280;27537;57.134;-2.136;2024-02-26T08:27:36;100988.91;;;6.21;100.00
41862;BME280;27537;57.134;-2.136;2024-02-26T08:30:03;101008.78;;;6.27;100.00
41862;BME280;27537;57.134;-2.136;2024-02-26T08:32:30;100994.06;;;6.76;100.00
41862;BME280;27537;57.134;-2.136;2024-02-26T08:34:57;101006.78;;;6.94;100.00
41862;BME280;27537;57.134;-2.136;2024-02-26T08:37:27;101011.75;;;7.07;100.00
41862;BME280;27537;57.134;-2.136;2024-02-26T08:39:53;101018.28;;;7.28;100.00
41862;BME280;27537;57.134;-2.136;2024-02-26T08:42:20;101013.47;;;7.93;100.00
41862;BME280;27537;57.134;-2.136;2024-02-26T08:44:47;101029.13;;;7.51;100.00
41862;BME280;27537;57.134;-2.136;2024-02-26T08:47:14;101030.50;;;7.24;100.00
41862;BME280;27537;57.134;-2.136;2024-02-26T08:49:45;101030.13;;;7.46;100.00
41862;BME280;27537;57.134;-2.136;2024-02-26T08:52:11;101032.94;;;6.85;100.00
41862;BME280;27537;57.134;-2.136;2024-02-26T08:54:38;101040.69;;;7.36;100.00
41862;BME280;27537;57.134;-2.136;2024-02-26T08:57:05;101037.25;;;7.36;100.00
41862;BME280;27537;57.134;-2.136;2024-02-26T08:59:35;101037.97;;;7.44;100.00
41862;BME280;27537;57.134;-2.136;2024-02-26T09:02:01;101038.53;;;7.12;100.00
41862;BME280;27537;57.134;-2.136;2024-02-26T09:04:28;101035.84;;;7.18;100.00
41862;BME280;27537;57.134;-2.136;2024-02-26T09:06:55;101037.47;;;7.23;100.00
41862;BME280;27537;57.134;-2.136;2024-02-26T09:09:22;101039.31;;;7.64;100.00
41862;BME280;27537;57.134;-2.136;2024-02-26T09:11:51;101045.53;;;7.10;100.00
41862;BME280;27537;57.134;-2.136;2024-02-26T09:14:18;101042.84;;;7.16;100.00
41862;BME280;27537;57.134;-2.136;2024-02-26T09:16:45;101054.38;;;7.01;100.00
41862;BME280;27537;57.134;-2.136;2024-02-26T09:19:12;101042.84;;;7.16;100.00
41862;BME280;27537;57.134;-2.136;2024-02-26T09:21:42;101055.75;;;7.20;100.00
41862;BME280;27537;57.134;-2.136;2024-02-26T09:24:11;101072.09;;;6.80;100.00
41862;BME280;27537;57.134;-2.136;2024-02-26T09:26:38;101059.66;;;7.45;100.00
41862;BME280;27537;57.134;-2.136;2024-02-26T09:29:05;101064.69;;;7.52;100.00
41862;BME280;27537;57.134;-2.136;2024-02-26T09:31:32;101053.41;;;7.53;100.00
41862;BME280;27537;57.134;-2.136;2024-02-26T09:34:00;101062.88;;;7.12;100.00
41862;BME280;27537;57.134;-2.136;2024-02-26T09:36:29;101060.91;;;7.23;100.00
41862;BME280;27537;57.134;-2.136;2024-02-26T09:38:56;101070.69;;;7.11;100.00
41862;BME280;27537;57.134;-2.136;2024-02-26T09:41:30;101081.06;;;6.62;100.00
41862;BME280;27537;57.134;-2.136;2024-02-26T09:43:57;101072.97;;;7.29;100.00
41862;BME280;27537;57.134;-2.136;2024-02-26T09:46:26;101080.22;;;7.12;100.00
41862;BME280;27537;57.134;-2.136;2024-02-26T09:48:53;101086.44;;;7.51;100.00
41862;BME280;27537;57.134;-2.136;2024-02-26T09:51:22;101085.75;;;7.41;100.00
41862;BME280;27537;57.134;-2.136;2024-02-26T09:53:52;101088.06;;;7.57;100.00
41862;BME280;27537;57.134;-2.136;2024-02-26T09:56:21;101098.97;;;7.77;100.00
41862;BME280;27537;57.134;-2.136;2024-02-26T09:58:48;101111.34;;;7.66;100.00
41862;BME280;27537;57.134;-2.136;2024-02-26T10:01:20;101123.84;;;7.49;100.00
41862;BME280;27537;57.134;-2.136;2024-02-26T10:03:57;101120.31;;;7.53;100.00
41862;BME280;27537;57.134;-2.136;2024-02-26T10:06:27;101131.78;;;7.41;100.00
41862;BME280;27537;57.134;-2.136;2024-02-26T10:08:56;101126.81;;;7.29;100.00
41862;BME280;27537;57.134;-2.136;2024-02-26T10:11:26;101122.03;;;7.52;100.00
41862;BME280;27537;57.134;-2.136;2024-02-26T10:13:54;101140.59;;;7.80;100.00
41862;BME280;27537;57.134;-2.136;2024-02-26T10:16:20;101152.84;;;7.75;100.00
41862;BME280;27537;57.134;-2.136;2024-02-26T10:18:51;101156.50;;;8.12;100.00
41862;BME280;27537;57.134;-2.136;2024-02-26T10:21:25;101149.75;;;8.02;100.00
41862;BME280;27537;57.134;-2.136;2024-02-26T10:23:52;101155.31;;;8.27;100.00
41862;BME280;27537;57.134;-2.136;2024-02-26T10:26:19;101154.28;;;7.93;100.00
41862;BME280;27537;57.134;-2.136;2024-02-26T10:28:46;101162.47;;;8.17;100.00
41862;BME280;27537;57.134;-2.136;2024-02-26T10:31:19;101160.47;;;8.30;100.00
41862;BME280;27537;57.134;-2.136;2024-02-26T10:33:45;101163.31;;;8.19;100.00
41862;BME280;27537;57.134;-2.136;2024-02-26T10:36:12;101169.72;;;7.56;100.00
41862;BME280;27537;57.134;-2.136;2024-02-26T10:38:39;101170.97;;;7.85;100.00
41862;BME280;27537;57.134;-2.136;2024-02-26T10:41:06;101173.41;;;7.46;100.00
41862;BME280;27537;57.134;-2.136;2024-02-26T10:43:34;101163.69;;;8.01;100.00
41862;BME280;27537;57.134;-2.136;2024-02-26T10:46:01;101178.13;;;7.72;100.00
41862;BME280;27537;57.134;-2.136;2024-02-26T10:48:28;101184.00;;;8.27;100.00
41862;BME280;27537;57.134;-2.136;2024-02-26T10:50:55;101193.53;;;7.84;100.00
41862;BME280;27537;57.134;-2.136;2024-02-26T10:53:26;101180.25;;;7.98;100.00
41862;BME280;27537;57.134;-2.136;2024-02-26T10:56:00;101195.31;;;8.27;100.00
41862;BME280;27537;57.134;-2.136;2024-02-26T10:58:28;101191.03;;;8.23;100.00
41862;BME280;27537;57.134;-2.136;2024-02-26T11:00:56;101202.88;;;8.41;100.00
41862;BME280;27537;57.134;-2.136;2024-02-26T11:03:24;101199.63;;;8.70;100.00
41862;BME280;27537;57.134;-2.136;2024-02-26T11:05:52;101205.50;;;8.40;100.00
41862;BME280;27537;57.134;-2.136;2024-02-26T11:08:20;101212.66;;;8.28;100.00
41862;BME280;27537;57.134;-2.136;2024-02-26T11:10:53;101204.28;;;8.12;100.00
41862;BME280;27537;57.134;-2.136;2024-02-26T11:13:21;101193.34;;;8.37;100.00
41862;BME280;27537;57.134;-2.136;2024-02-26T11:15:48;101206.41;;;8.37;100.00
41862;BME280;27537;57.134;-2.136;2024-02-26T11:18:16;101201.34;;;7.84;100.00
41862;BME280;27537;57.134;-2.136;2024-02-26T11:20:46;101191.41;;;8.50;100.00
41862;BME280;27537;57.134;-2.136;2024-02-26T11:23:16;101200.78;;;8.15;100.00
41862;BME280;27537;57.134;-2.136;2024-02-26T11:25:42;101204.09;;;7.78;100.00
41862;BME280;27537;57.134;-2.136;2024-02-26T11:28:12;101212.53;;;7.91;100.00
41862;BME280;27537;57.134;-2.136;2024-02-26T11:30:43;101218.09;;;7.74;100.00
41862;BME280;27537;57.134;-2.136;2024-02-26T11:33:12;101216.09;;;7.87;100.00
41862;BME280;27537;57.134;-2.136;2024-02-26T11:35:40;101222.19;;;8.32;100.00
41862;BME280;27537;57.134;-2.136;2024-02-26T11:38:07;101213.59;;;8.26;100.00
41862;BME280;27537;57.134;-2.136;2024-02-26T11:40:38;101218.44;;;8.46;100.00
41862;BME280;27537;57.134;-2.136;2024-02-26T11:43:06;101222.91;;;7.47;100.00
41862;BME280;27537;57.134;-2.136;2024-02-26T11:48:16;101213.03;;;7.63;100.00
41862;BME280;27537;57.134;-2.136;2024-02-26T11:50:49;101217.63;;;7.49;100.00
41862;BME280;27537;57.134;-2.136;2024-02-26T11:53:27;101216.16;;;7.34;100.00
41862;BME280;27537;57.134;-2.136;2024-02-26T11:58:40;101213.81;;;7.68;100.00
41862;BME280;27537;57.134;-2.136;2024-02-26T12:04:07;101217.69;;;7.95;100.00
41862;BME280;27537;57.134;-2.136;2024-02-26T12:06:42;101209.91;;;7.92;100.00
41862;BME280;27537;57.134;-2.136;2024-02-26T12:09:09;101210.59;;;8.02;100.00
41862;BME280;27537;57.134;-2.136;2024-02-26T12:11:40;101230.75;;;7.92;100.00
41862;BME280;27537;57.134;-2.136;2024-02-26T12:14:09;101231.84;;;8.27;100.00
41862;BME280;27537;57.134;-2.136;2024-02-26T12:16:39;101246.34;;;7.97;100.00
41862;BME280;27537;57.134;-2.136;2024-02-26T12:19:07;101245.34;;;8.04;100.00
41862;BME280;27537;57.134;-2.136;2024-02-26T12:21:36;101240.69;;;8.62;100.00
41862;BME280;27537;57.134;-2.136;2024-02-26T12:24:11;101243.72;;;8.42;100.00
41862;BME280;27537;57.134;-2.136;2024-02-26T12:26:39;101252.94;;;8.60;100.00
41862;BME280;27537;57.134;-2.136;2024-02-26T12:29:07;101264.06;;;8.70;100.00
41862;BME280;27537;57.134;-2.136;2024-02-26T12:31:34;101262.00;;;8.42;100.00
41862;BME280;27537;57.134;-2.136;2024-02-26T12:34:04;101271.97;;;8.22;100.00
41862;BME280;27537;57.134;-2.136;2024-02-26T12:36:33;101290.78;;;7.89;100.00
41862;BME280;27537;57.134;-2.136;2024-02-26T12:39:04;101290.81;;;8.36;100.00
41862;BME280;27537;57.134;-2.136;2024-02-26T12:41:33;101288.31;;;8.30;100.00
41862;BME280;27537;57.134;-2.136;2024-02-26T12:44:00;101279.66;;;8.28;100.00
41862;BME280;27537;57.134;-2.136;2024-02-26T12:46:27;101282.44;;;8.18;100.00
41862;BME280;27537;57.134;-2.136;2024-02-26T12:48:58;101283.16;;;8.72;100.00
41862;BME280;27537;57.134;-2.136;2024-02-26T12:51:26;101281.25;;;8.80;100.00